Time;durP1;ratioP1;P1;durP2;ratioP2;P2;SDS_P1;SDS_P2;PMS_P1;PMS_P2;Temp;Humidity;BMP_temperature;BMP_pressure;BME280_temperature;BME280_humidity;BME280_pressure;Samples;Min_cycle;Max_cycle;Signal;HPM_P1;HPM_P2
2023/05/15 00:00:23;;;;;;;11.63;8.13;;;;;;;;;;5040326;28;20185;-66
2023/05/15 00:02:50;;;;;;;13.73;8.00;;;;;;;;;;5050359;28;20277;-66
2023/05/15 00:05:17;;;;;;;11.07;7.90;;;;;;;;;;5050455;28;20202;-66
2023/05/15 00:07:43;;;;;;;14.57;8.27;;;;;;;;;;5037455;28;20269;-66
2023/05/15 00:10:11;;;;;;;11.30;7.37;;;;;;;;;;5029963;28;20184;-66
2023/05/15 00:12:37;;;;;;;12.07;6.77;;;;;;;;;;5029207;28;20191;-66
2023/05/15 00:15:04;;;;;;;10.03;6.97;;;;;;;;;;5029116;28;20237;-66
2023/05/15 00:17:31;;;;;;;10.03;7.00;;;;;;;;;;5029210;28;20692;-66
2023/05/15 00:19:59;;;;;;;11.20;7.10;;;;;;;;;;5029300;28;20198;-66
2023/05/15 00:22:27;;;;;;;9.80;7.43;;;;;;;;;;5029874;28;20249;-66
2023/05/15 00:24:53;;;;;;;9.70;7.23;;;;;;;;;;5029205;28;20258;-66
2023/05/15 00:27:20;;;;;;;8.43;6.67;;;;;;;;;;5030179;28;20194;-66
2023/05/15 00:29:46;;;;;;;13.13;7.43;;;;;;;;;;5029141;28;20195;-65
2023/05/15 00:32:13;;;;;;;12.60;7.67;;;;;;;;;;5029156;28;20190;-66
2023/05/15 00:34:40;;;;;;;13.20;7.43;;;;;;;;;;5010943;28;20187;-66
2023/05/15 00:37:07;;;;;;;13.77;8.07;;;;;;;;;;5019468;28;20200;-66
2023/05/15 00:39:35;;;;;;;11.07;8.27;;;;;;;;;;5012323;28;20190;-65
2023/05/15 00:42:02;;;;;;;8.47;7.50;;;;;;;;;;5012261;28;20196;-66
2023/05/15 00:44:29;;;;;;;12.93;7.60;;;;;;;;;;5045504;28;20195;-66
2023/05/15 00:46:56;;;;;;;9.50;7.13;;;;;;;;;;5029591;28;20203;-66
2023/05/15 00:49:25;;;;;;;10.47;7.20;;;;;;;;;;5012750;28;20230;-66
2023/05/15 00:51:52;;;;;;;10.87;7.50;;;;;;;;;;4995671;28;20192;-66
2023/05/15 00:54:19;;;;;;;13.47;6.73;;;;;;;;;;5023034;28;20703;-66
2023/05/15 00:56:46;;;;;;;10.83;6.70;;;;;;;;;;5012680;28;20184;-66
2023/05/15 00:59:15;;;;;;;11.90;7.23;;;;;;;;;;5004853;28;20196;-66
2023/05/15 01:01:44;;;;;;;10.33;6.67;;;;;;;;;;5008614;28;20200;-66
2023/05/15 01:04:10;;;;;;;12.07;7.70;;;;;;;;;;4992253;28;20271;-66
2023/05/15 01:06:37;;;;;;;14.07;6.93;;;;;;;;;;5020023;28;20222;-66
2023/05/15 01:09:05;;;;;;;9.60;7.00;;;;;;;;;;5010466;28;20191;-66
2023/05/15 01:11:35;;;;;;;8.70;6.60;;;;;;;;;;5018719;28;20192;-66
2023/05/15 01:14:03;;;;;;;9.50;6.80;;;;;;;;;;5003520;28;20250;-66
2023/05/15 01:16:30;;;;;;;10.30;6.87;;;;;;;;;;5027137;28;20298;-66
2023/05/15 01:18:57;;;;;;;8.83;6.37;;;;;;;;;;5028572;28;20310;-66
2023/05/15 01:21:44;;;;;;;10.73;7.20;;;;;;;;;;5009555;28;20203;-66
2023/05/15 01:24:23;;;;;;;14.03;7.57;;;;;;;;;;4976803;28;20273;-66
2023/05/15 01:27:08;;;;;;;10.57;7.77;;;;;;;;;;5009756;28;20226;-66
2023/05/15 01:29:36;;;;;;;12.53;7.73;;;;;;;;;;5028825;28;20183;-66
2023/05/15 01:32:05;;;;;;;8.30;7.30;;;;;;;;;;5028146;28;20199;-66
2023/05/15 01:34:47;;;;;;;10.90;7.40;;;;;;;;;;5029158;28;20187;-66
2023/05/15 01:37:15;;;;;;;10.20;6.70;;;;;;;;;;5028411;28;20191;-66
2023/05/15 01:39:41;;;;;;;9.97;6.97;;;;;;;;;;4994307;28;20230;-66
2023/05/15 01:42:09;;;;;;;8.33;6.20;;;;;;;;;;5011528;28;20199;-66
2023/05/15 02:19:58;;;;;;;8.60;6.77;;;;;;;;;;5030183;28;20178;-65
2023/05/15 02:22:25;;;;;;;9.17;6.80;;;;;;;;;;5037944;28;20195;-65
2023/05/15 02:24:52;;;;;;;11.60;6.87;;;;;;;;;;5030902;28;20726;-65
2023/05/15 02:27:19;;;;;;;9.90;6.67;;;;;;;;;;5031769;28;20195;-65
2023/05/15 02:29:46;;;;;;;10.07;6.80;;;;;;;;;;4998636;28;20206;-66
2023/05/15 02:32:21;;;;;;;10.57;7.20;;;;;;;;;;5031509;28;20185;-65
2023/05/15 02:34:51;;;;;;;12.57;7.50;;;;;;;;;;5032197;28;20199;-65
2023/05/15 02:37:20;;;;;;;8.50;7.13;;;;;;;;;;5013245;28;20282;-65
2023/05/15 02:39:48;;;;;;;10.30;6.83;;;;;;;;;;5013207;28;20202;-64
2023/05/15 02:42:15;;;;;;;10.33;7.13;;;;;;;;;;5030023;28;20655;-65
2023/05/15 02:44:43;;;;;;;11.27;6.87;;;;;;;;;;4995885;28;20228;-66
2023/05/15 02:47:09;;;;;;;12.43;7.10;;;;;;;;;;5003040;28;20221;-66
2023/05/15 02:49:36;;;;;;;14.53;6.63;;;;;;;;;;5014531;28;20662;-65
2023/05/15 02:52:04;;;;;;;14.23;7.40;;;;;;;;;;5028428;28;20227;-65
2023/05/15 02:54:31;;;;;;;13.30;7.87;;;;;;;;;;4994854;28;20679;-66
2023/05/15 02:56:57;;;;;;;12.47;7.40;;;;;;;;;;5027439;28;20718;-66
2023/05/15 02:59:24;;;;;;;15.10;7.00;;;;;;;;;;5012047;28;20206;-66
2023/05/15 03:01:51;;;;;;;12.70;7.43;;;;;;;;;;5025995;28;20691;-65
2023/05/15 03:04:17;;;;;;;9.03;6.50;;;;;;;;;;5005129;28;20200;-65
2023/05/15 03:06:44;;;;;;;12.47;7.03;;;;;;;;;;5011982;28;20222;-65
2023/05/15 03:09:11;;;;;;;10.10;7.07;;;;;;;;;;4996251;28;20198;-66
2023/05/15 03:11:37;;;;;;;11.03;6.90;;;;;;;;;;5014120;28;20191;-66
2023/05/15 03:14:04;;;;;;;9.93;7.10;;;;;;;;;;5031657;28;20191;-66
2023/05/15 03:16:31;;;;;;;9.90;6.50;;;;;;;;;;5031732;28;20223;-66
2023/05/15 03:18:57;;;;;;;9.87;6.73;;;;;;;;;;5031023;28;20613;-66
2023/05/15 03:21:24;;;;;;;12.70;6.30;;;;;;;;;;4997675;28;20199;-66
2023/05/15 03:23:51;;;;;;;10.90;7.03;;;;;;;;;;5013222;28;20285;-67
2023/05/15 03:26:17;;;;;;;10.70;6.70;;;;;;;;;;5009723;28;20220;-68
2023/05/15 03:28:44;;;;;;;8.80;6.93;;;;;;;;;;5011557;28;20268;-66
2023/05/15 03:31:11;;;;;;;9.03;6.27;;;;;;;;;;5020228;28;20202;-66
2023/05/15 03:33:37;;;;;;;9.43;6.67;;;;;;;;;;5026164;28;20234;-65
2023/05/15 03:36:05;;;;;;;12.73;7.33;;;;;;;;;;5009986;28;20198;-59
2023/05/15 03:38:31;;;;;;;17.17;8.37;;;;;;;;;;5009660;28;20184;-59
2023/05/15 03:40:59;;;;;;;24.70;9.00;;;;;;;;;;5028473;28;20187;-59
2023/05/15 03:43:28;;;;;;;14.63;7.93;;;;;;;;;;5019857;28;20195;-59
2023/05/15 03:45:55;;;;;;;18.13;8.50;;;;;;;;;;5028487;28;20219;-59
2023/05/15 03:48:22;;;;;;;67.43;12.30;;;;;;;;;;5009316;28;20194;-60
2023/05/15 03:50:49;;;;;;;54.47;11.60;;;;;;;;;;5026242;28;20184;-58
2023/05/15 03:53:17;;;;;;;31.23;9.53;;;;;;;;;;4993696;28;20195;-59
2023/05/15 03:55:44;;;;;;;27.87;8.30;;;;;;;;;;5010886;28;20916;-59
2023/05/15 03:58:11;;;;;;;20.83;7.97;;;;;;;;;;5026899;28;20215;-59
2023/05/15 04:00:38;;;;;;;28.77;8.33;;;;;;;;;;5009001;28;20207;-60
2023/05/15 04:03:04;;;;;;;31.77;9.50;;;;;;;;;;5028430;28;20202;-60
2023/05/15 04:05:31;;;;;;;24.20;9.07;;;;;;;;;;5028756;28;20187;-60
2023/05/15 04:07:58;;;;;;;37.13;13.30;;;;;;;;;;5028440;28;20194;-59
2023/05/15 04:10:25;;;;;;;19.97;9.10;;;;;;;;;;5028902;28;20187;-59
2023/05/15 04:12:52;;;;;;;33.47;8.93;;;;;;;;;;5028126;28;20245;-60
2023/05/15 04:15:20;;;;;;;126.90;41.17;;;;;;;;;;5026580;28;20187;-59
2023/05/15 04:17:47;;;;;;;40.10;14.63;;;;;;;;;;5010909;28;20205;-59
2023/05/15 04:20:15;;;;;;;40.87;15.30;;;;;;;;;;5028780;28;20193;-58
2023/05/15 04:22:41;;;;;;;121.33;38.77;;;;;;;;;;5028269;28;20203;-58
2023/05/15 04:25:10;;;;;;;85.63;30.87;;;;;;;;;;5028389;28;20586;-59
2023/05/15 04:27:37;;;;;;;50.90;18.90;;;;;;;;;;5009470;28;20226;-59
2023/05/15 04:30:04;;;;;;;31.03;12.53;;;;;;;;;;5021052;28;20246;-59
2023/05/15 04:32:36;;;;;;;35.13;11.87;;;;;;;;;;5025179;28;20191;-62
2023/05/15 04:35:10;;;;;;;28.07;9.60;;;;;;;;;;5008744;28;20191;-59
2023/05/15 04:37:38;;;;;;;18.93;8.87;;;;;;;;;;5026783;28;20192;-60
2023/05/15 04:40:06;;;;;;;20.37;9.17;;;;;;;;;;5020110;28;20223;-60
2023/05/15 04:42:34;;;;;;;14.10;7.80;;;;;;;;;;5029894;28;20238;-59
2023/05/15 04:45:05;;;;;;;12.63;8.20;;;;;;;;;;5028721;28;20183;-60
2023/05/15 04:47:31;;;;;;;11.50;8.57;;;;;;;;;;5041524;28;21396;-59
2023/05/15 04:49:59;;;;;;;12.73;8.20;;;;;;;;;;5028198;28;20196;-60
2023/05/15 04:52:25;;;;;;;12.10;7.70;;;;;;;;;;5031333;28;20191;-59
2023/05/15 04:54:54;;;;;;;13.30;7.83;;;;;;;;;;5029057;28;20622;-60
2023/05/15 04:57:24;;;;;;;11.70;6.63;;;;;;;;;;5029298;28;20191;-59
2023/05/15 04:59:51;;;;;;;15.30;7.80;;;;;;;;;;5028159;28;20195;-59
2023/05/15 05:02:21;;;;;;;21.67;8.33;;;;;;;;;;5024067;28;20195;-60
2023/05/15 05:04:48;;;;;;;16.77;7.43;;;;;;;;;;5028049;28;20198;-60
2023/05/15 05:07:15;;;;;;;15.87;7.10;;;;;;;;;;5010471;28;20219;-60
2023/05/15 05:09:41;;;;;;;17.20;7.33;;;;;;;;;;5027892;28;20222;-60
2023/05/15 05:12:08;;;;;;;20.40;7.70;;;;;;;;;;5030425;28;20529;-59
2023/05/15 05:14:36;;;;;;;18.60;7.57;;;;;;;;;;5024890;28;20205;-60
2023/05/15 05:17:03;;;;;;;22.60;7.93;;;;;;;;;;5008990;28;20275;-59
2023/05/15 05:19:29;;;;;;;46.13;8.67;;;;;;;;;;5008420;28;20195;-59
2023/05/15 05:22:03;;;;;;;40.17;7.93;;;;;;;;;;5032283;28;20840;-59
2023/05/15 05:24:30;;;;;;;18.30;6.37;;;;;;;;;;5025228;28;20255;-59
2023/05/15 05:26:57;;;;;;;17.23;7.60;;;;;;;;;;5024111;28;20614;-60
2023/05/15 05:29:24;;;;;;;16.40;7.00;;;;;;;;;;5026212;28;20217;-60
2023/05/15 05:31:51;;;;;;;14.57;7.13;;;;;;;;;;5025710;28;20196;-60
2023/05/15 05:34:18;;;;;;;20.77;7.27;;;;;;;;;;5023518;28;20211;-60
2023/05/15 05:36:45;;;;;;;19.03;7.07;;;;;;;;;;5026644;28;20289;-60
2023/05/15 05:39:12;;;;;;;16.30;7.57;;;;;;;;;;5016823;28;20219;-61
2023/05/15 05:41:39;;;;;;;20.53;7.30;;;;;;;;;;5025362;28;20199;-59
2023/05/15 05:44:06;;;;;;;18.30;7.40;;;;;;;;;;5027669;28;20997;-59
2023/05/15 05:46:33;;;;;;;14.27;5.90;;;;;;;;;;5027753;28;20207;-59
2023/05/15 05:49:00;;;;;;;21.47;7.13;;;;;;;;;;5027980;28;20199;-59
2023/05/15 05:51:26;;;;;;;20.07;6.53;;;;;;;;;;5018576;28;20255;-59
2023/05/15 05:53:53;;;;;;;13.27;6.20;;;;;;;;;;5019877;28;20732;-60
2023/05/15 05:56:21;;;;;;;18.53;7.07;;;;;;;;;;5032988;28;20191;-59
2023/05/15 05:58:48;;;;;;;15.80;7.33;;;;;;;;;;5016062;28;20274;-59
2023/05/15 06:01:15;;;;;;;9.60;5.83;;;;;;;;;;5033845;28;20219;-59
2023/05/15 06:03:42;;;;;;;8.70;6.10;;;;;;;;;;5033356;28;20614;-59
2023/05/15 06:06:09;;;;;;;12.40;6.40;;;;;;;;;;5030566;28;20239;-60
2023/05/15 06:08:38;;;;;;;10.37;6.37;;;;;;;;;;5029341;28;20192;-59
2023/05/15 06:11:05;;;;;;;13.73;5.73;;;;;;;;;;5031197;28;20187;-59
2023/05/15 06:13:32;;;;;;;10.90;5.50;;;;;;;;;;5030916;28;20227;-60
2023/05/15 06:15:58;;;;;;;6.33;5.00;;;;;;;;;;5030345;28;20191;-59
2023/05/15 06:18:27;;;;;;;7.43;4.30;;;;;;;;;;5030827;28;20199;-60
2023/05/15 06:20:59;;;;;;;320.70;22.87;;;;;;;;;;5031404;28;20183;-60
2023/05/15 06:23:25;;;;;;;10.23;4.90;;;;;;;;;;5028792;28;20188;-60
2023/05/15 06:25:52;;;;;;;6.23;4.63;;;;;;;;;;5029656;28;20263;-59
2023/05/15 06:28:19;;;;;;;8.63;5.13;;;;;;;;;;5031258;28;20218;-60
2023/05/15 06:30:45;;;;;;;7.73;5.13;;;;;;;;;;5030057;28;20302;-60
2023/05/15 06:33:12;;;;;;;9.17;4.57;;;;;;;;;;5030654;28;20191;-60
2023/05/15 06:35:39;;;;;;;6.53;4.70;;;;;;;;;;5030378;28;20551;-61
2023/05/15 06:38:06;;;;;;;2.93;2.03;;;;;;;;;;5026671;28;20745;-59
2023/05/15 06:40:32;;;;;;;4.27;2.40;;;;;;;;;;5008961;28;20236;-59
2023/05/15 06:42:59;;;;;;;4.90;2.73;;;;;;;;;;5031178;28;20227;-60
2023/05/15 06:45:26;;;;;;;4.07;2.20;;;;;;;;;;5030890;28;21043;-64
2023/05/15 06:47:53;;;;;;;5.10;2.60;;;;;;;;;;5031110;28;20207;-63
2023/05/15 06:50:20;;;;;;;5.10;2.80;;;;;;;;;;5030571;28;20196;-62
2023/05/15 06:52:47;;;;;;;5.37;3.17;;;;;;;;;;5029186;28;20203;-61
2023/05/15 06:55:13;;;;;;;4.87;2.57;;;;;;;;;;5029788;28;20234;-61
2023/05/15 06:57:40;;;;;;;5.27;2.30;;;;;;;;;;5030148;28;20190;-59
2023/05/15 07:00:08;;;;;;;3.80;2.40;;;;;;;;;;5029771;28;20203;-63
2023/05/15 07:02:35;;;;;;;3.77;2.53;;;;;;;;;;5029982;28;20253;-60
2023/05/15 07:05:05;;;;;;;4.97;2.50;;;;;;;;;;5030287;28;20184;-59
2023/05/15 07:07:33;;;;;;;3.43;2.47;;;;;;;;;;5029681;28;20211;-60
2023/05/15 07:09:59;;;;;;;6.47;2.60;;;;;;;;;;5030768;28;20314;-60
2023/05/15 07:12:27;;;;;;;4.93;2.77;;;;;;;;;;5016982;28;20219;-62
2023/05/15 07:14:54;;;;;;;4.93;2.50;;;;;;;;;;5029876;28;20290;-61
2023/05/15 07:17:20;;;;;;;3.00;2.70;;;;;;;;;;5029618;28;20730;-59
2023/05/15 07:19:47;;;;;;;6.50;2.50;;;;;;;;;;5030139;28;20192;-63
2023/05/15 07:22:14;;;;;;;7.73;2.73;;;;;;;;;;5030301;28;20202;-62
2023/05/15 07:24:41;;;;;;;8.57;3.20;;;;;;;;;;5029870;28;20227;-60
2023/05/15 07:27:07;;;;;;;8.67;2.90;;;;;;;;;;5028673;28;20385;-60
2023/05/15 07:29:34;;;;;;;5.53;2.80;;;;;;;;;;5029550;28;20667;-60
2023/05/15 07:32:01;;;;;;;5.97;2.70;;;;;;;;;;5030014;28;20621;-61
2023/05/15 07:34:28;;;;;;;15.17;4.10;;;;;;;;;;5029293;28;20270;-59
2023/05/15 07:36:54;;;;;;;7.33;3.03;;;;;;;;;;5030442;28;20214;-60
2023/05/15 07:39:21;;;;;;;7.33;3.20;;;;;;;;;;5029826;28;20685;-61
2023/05/15 07:41:49;;;;;;;5.33;3.17;;;;;;;;;;5029595;28;20194;-61
2023/05/15 07:44:16;;;;;;;5.83;3.47;;;;;;;;;;5008003;28;20293;-61
2023/05/15 07:46:44;;;;;;;6.87;3.27;;;;;;;;;;5028868;28;20310;-61
2023/05/15 07:49:11;;;;;;;6.67;2.83;;;;;;;;;;5028829;28;20191;-61
2023/05/15 07:51:39;;;;;;;5.43;2.40;;;;;;;;;;5028724;28;20207;-61
2023/05/15 07:54:06;;;;;;;2.83;2.30;;;;;;;;;;5028698;28;20202;-60
2023/05/15 07:56:32;;;;;;;5.37;2.60;;;;;;;;;;5028596;28;20213;-61
2023/05/15 07:58:59;;;;;;;4.17;2.60;;;;;;;;;;5026783;28;20187;-63
2023/05/15 08:01:26;;;;;;;2.90;2.60;;;;;;;;;;5028926;28;20899;-62
2023/05/15 08:03:58;;;;;;;6.07;2.87;;;;;;;;;;5010598;28;20192;-63
2023/05/15 08:06:25;;;;;;;5.37;2.60;;;;;;;;;;5026799;28;20218;-61
2023/05/15 08:08:52;;;;;;;7.10;2.80;;;;;;;;;;5028342;28;20666;-60
2023/05/15 08:11:20;;;;;;;3.77;2.20;;;;;;;;;;5028777;28;20187;-60
2023/05/15 08:13:48;;;;;;;3.30;2.57;;;;;;;;;;5028146;28;20265;-60
2023/05/15 08:16:15;;;;;;;3.93;2.20;;;;;;;;;;5022692;28;20195;-60
2023/05/15 08:18:46;;;;;;;3.13;2.47;;;;;;;;;;5011100;28;20254;-61
2023/05/15 08:21:13;;;;;;;5.07;2.60;;;;;;;;;;4994834;28;20179;-59
2023/05/15 08:23:40;;;;;;;8.07;2.77;;;;;;;;;;5028149;28;20291;-60
2023/05/15 08:26:08;;;;;;;4.23;2.40;;;;;;;;;;5028719;28;20195;-61
2023/05/15 08:28:34;;;;;;;8.63;2.90;;;;;;;;;;5028637;28;20318;-60
2023/05/15 08:31:01;;;;;;;4.33;3.30;;;;;;;;;;5026203;28;20603;-61
2023/05/15 08:33:28;;;;;;;3.97;2.43;;;;;;;;;;5018770;28;20967;-59
2023/05/15 08:35:55;;;;;;;5.77;2.63;;;;;;;;;;5028335;28;20183;-59
2023/05/15 08:38:22;;;;;;;6.73;3.10;;;;;;;;;;5027883;28;20277;-60
2023/05/15 08:40:49;;;;;;;6.67;2.93;;;;;;;;;;5028382;28;20606;-59
2023/05/15 08:43:16;;;;;;;5.50;3.20;;;;;;;;;;5019268;28;20242;-59
2023/05/15 08:45:43;;;;;;;5.93;3.40;;;;;;;;;;5028823;28;20231;-59
2023/05/15 08:48:10;;;;;;;12.53;3.63;;;;;;;;;;5026990;28;20215;-60
2023/05/15 08:50:37;;;;;;;9.37;3.20;;;;;;;;;;4974309;28;20659;-59
2023/05/15 08:53:04;;;;;;;8.33;3.50;;;;;;;;;;5014610;28;20195;-59
2023/05/15 08:55:31;;;;;;;11.80;3.90;;;;;;;;;;5027579;28;20184;-59
2023/05/15 08:57:59;;;;;;;7.77;3.53;;;;;;;;;;5010837;28;20198;-59
2023/05/15 09:00:26;;;;;;;8.97;3.47;;;;;;;;;;5010317;28;20598;-60
2023/05/15 09:02:52;;;;;;;8.00;3.33;;;;;;;;;;5010478;28;20546;-59
2023/05/15 09:05:19;;;;;;;7.20;3.77;;;;;;;;;;5021540;28;20674;-59
2023/05/15 09:07:46;;;;;;;9.90;3.60;;;;;;;;;;5012212;28;21119;-59
2023/05/15 09:10:14;;;;;;;6.97;3.60;;;;;;;;;;5010853;28;20226;-59
2023/05/15 09:12:42;;;;;;;7.80;3.40;;;;;;;;;;5010364;28;20222;-59
2023/05/15 09:15:21;;;;;;;4.90;3.00;;;;;;;;;;5010045;28;20203;-59
2023/05/15 09:17:49;;;;;;;4.67;2.80;;;;;;;;;;5027767;28;20207;-59
2023/05/15 09:20:29;;;;;;;7.03;2.80;;;;;;;;;;5026617;28;20199;-59
2023/05/15 09:22:56;;;;;;;4.03;3.20;;;;;;;;;;5013946;28;20184;-59
2023/05/15 09:25:38;;;;;;;5.40;3.30;;;;;;;;;;5028328;28;20262;-59
2023/05/15 09:28:07;;;;;;;6.17;3.60;;;;;;;;;;5026738;28;20254;-59
2023/05/15 09:30:36;;;;;;;5.70;3.60;;;;;;;;;;5010083;28;20191;-60
2023/05/15 09:33:03;;;;;;;6.23;3.70;;;;;;;;;;5026867;28;20198;-60
2023/05/15 09:35:35;;;;;;;5.50;3.70;;;;;;;;;;5027793;28;20211;-60
2023/05/15 09:38:03;;;;;;;5.27;3.40;;;;;;;;;;5024813;28;20203;-58
2023/05/15 09:40:30;;;;;;;8.37;4.23;;;;;;;;;;5027584;28;20195;-59
2023/05/15 09:42:57;;;;;;;7.50;3.70;;;;;;;;;;5017108;28;20183;-59
2023/05/15 09:45:25;;;;;;;8.40;3.67;;;;;;;;;;4998666;28;20207;-58
2023/05/15 09:47:52;;;;;;;6.30;3.90;;;;;;;;;;5028344;28;20206;-59
2023/05/15 09:50:21;;;;;;;6.07;3.80;;;;;;;;;;5028230;28;20921;-58
2023/05/15 09:52:48;;;;;;;5.30;3.67;;;;;;;;;;5028395;28;20211;-59
2023/05/15 09:55:16;;;;;;;6.27;4.03;;;;;;;;;;5010700;28;20225;-60
2023/05/15 09:57:43;;;;;;;6.03;3.90;;;;;;;;;;5028635;28;20196;-59
2023/05/15 10:00:10;;;;;;;5.17;3.90;;;;;;;;;;5036913;28;20724;-60
2023/05/15 10:02:38;;;;;;;5.93;4.07;;;;;;;;;;5044723;28;20655;-59
2023/05/15 10:05:05;;;;;;;6.57;4.20;;;;;;;;;;5028078;28;20207;-59
2023/05/15 10:07:33;;;;;;;5.93;3.93;;;;;;;;;;5027448;28;20203;-59
2023/05/15 10:10:02;;;;;;;7.27;4.60;;;;;;;;;;5027608;28;20290;-59
2023/05/15 10:12:30;;;;;;;7.73;3.57;;;;;;;;;;5019520;28;20984;-59
2023/05/15 10:14:57;;;;;;;6.90;3.80;;;;;;;;;;5028142;28;20187;-60
2023/05/15 10:17:24;;;;;;;4.93;3.43;;;;;;;;;;5027253;28;20184;-59
2023/05/15 10:19:53;;;;;;;7.77;4.30;;;;;;;;;;5027710;28;20527;-60
2023/05/15 10:22:24;;;;;;;8.53;3.80;;;;;;;;;;5012136;28;20198;-60
2023/05/15 10:24:51;;;;;;;6.67;3.97;;;;;;;;;;5010958;28;20636;-60
2023/05/15 10:27:18;;;;;;;10.83;4.77;;;;;;;;;;5043968;28;20187;-59
2023/05/15 10:29:45;;;;;;;9.63;3.77;;;;;;;;;;5025336;28;20215;-59
2023/05/15 10:32:12;;;;;;;5.20;4.10;;;;;;;;;;5009073;28;20192;-59
2023/05/15 10:34:38;;;;;;;5.93;4.03;;;;;;;;;;5009109;28;20640;-59
2023/05/15 10:37:05;;;;;;;7.97;4.30;;;;;;;;;;5009335;28;20254;-59
2023/05/15 10:39:31;;;;;;;15.03;5.10;;;;;;;;;;5009084;28;20180;-59
2023/05/15 10:41:59;;;;;;;5.80;4.80;;;;;;;;;;4995635;28;20544;-60
2023/05/15 10:44:26;;;;;;;6.57;4.27;;;;;;;;;;5017109;28;20245;-59
2023/05/15 10:46:52;;;;;;;4.43;4.03;;;;;;;;;;5032313;28;20183;-59
2023/05/15 10:49:19;;;;;;;9.73;4.23;;;;;;;;;;5014894;28;20289;-59
2023/05/15 10:51:47;;;;;;;6.53;3.80;;;;;;;;;;5032193;28;20188;-60
2023/05/15 10:54:13;;;;;;;6.00;4.37;;;;;;;;;;5031841;28;20195;-60
2023/05/15 10:56:40;;;;;;;7.47;4.23;;;;;;;;;;5032175;28;20187;-60
2023/05/15 10:59:07;;;;;;;6.00;4.10;;;;;;;;;;5013881;28;20188;-61
2023/05/15 11:01:36;;;;;;;5.70;3.60;;;;;;;;;;4994828;28;20196;-60
2023/05/15 11:04:25;;;;;;;4.10;3.30;;;;;;;;;;5012548;28;20192;-60
2023/05/15 11:07:09;;;;;;;5.33;3.20;;;;;;;;;;5012280;28;20195;-60
2023/05/15 11:09:36;;;;;;;4.50;3.30;;;;;;;;;;5022865;28;20195;-60
2023/05/15 11:12:04;;;;;;;5.13;3.70;;;;;;;;;;5031884;28;20199;-60
2023/05/15 11:14:34;;;;;;;4.93;3.87;;;;;;;;;;5030431;28;20218;-63
2023/05/15 11:17:03;;;;;;;4.63;3.50;;;;;;;;;;5012295;28;20663;-60
2023/05/15 11:19:38;;;;;;;5.27;3.40;;;;;;;;;;5025456;28;20649;-59
2023/05/15 11:22:05;;;;;;;5.60;3.70;;;;;;;;;;5018552;28;20289;-59
2023/05/15 11:24:45;;;;;;;5.13;3.60;;;;;;;;;;5019285;28;20275;-59
2023/05/15 11:27:15;;;;;;;6.30;3.60;;;;;;;;;;5008992;28;20224;-59
2023/05/15 11:30:00;;;;;;;5.73;3.83;;;;;;;;;;5009629;28;20190;-59
2023/05/15 11:32:52;;;;;;;5.00;3.70;;;;;;;;;;5008345;28;20196;-59
2023/05/15 11:35:18;;;;;;;4.60;3.40;;;;;;;;;;4999232;28;20196;-59
2023/05/15 11:37:46;;;;;;;5.77;3.73;;;;;;;;;;5009414;28;20192;-59
2023/05/15 11:40:13;;;;;;;4.70;3.97;;;;;;;;;;5009344;28;20199;-59
2023/05/15 11:42:40;;;;;;;5.83;3.53;;;;;;;;;;5010055;28;20250;-59
2023/05/15 11:45:08;;;;;;;4.97;4.27;;;;;;;;;;5009057;28;20200;-60
2023/05/15 11:47:35;;;;;;;6.43;3.90;;;;;;;;;;5009697;28;20746;-60
2023/05/15 11:50:05;;;;;;;5.10;4.20;;;;;;;;;;4987801;28;20185;-60
2023/05/15 11:52:32;;;;;;;6.30;4.20;;;;;;;;;;4993147;28;20196;-59
2023/05/15 11:55:01;;;;;;;8.47;3.97;;;;;;;;;;5010341;28;20196;-59
2023/05/15 11:57:27;;;;;;;4.93;4.10;;;;;;;;;;5009801;28;20664;-59
2023/05/15 11:59:55;;;;;;;4.77;4.27;;;;;;;;;;4974597;28;20188;-60
2023/05/15 12:02:23;;;;;;;6.33;4.70;;;;;;;;;;5008523;28;20203;-60
2023/05/15 12:04:50;;;;;;;5.30;4.27;;;;;;;;;;5008542;28;20192;-60
2023/05/15 12:07:18;;;;;;;4.67;3.77;;;;;;;;;;5008275;28;20275;-60
2023/05/15 12:09:51;;;;;;;5.23;4.07;;;;;;;;;;4991447;28;21107;-60
2023/05/15 12:12:19;;;;;;;4.90;4.07;;;;;;;;;;5006069;28;20192;-60
2023/05/15 12:14:46;;;;;;;6.33;4.20;;;;;;;;;;5008582;28;20184;-59
2023/05/15 12:17:13;;;;;;;6.00;4.07;;;;;;;;;;4992799;28;20193;-61
2023/05/15 12:19:40;;;;;;;5.70;3.97;;;;;;;;;;5007307;28;20203;-59
2023/05/15 12:22:07;;;;;;;6.60;4.50;;;;;;;;;;5006247;28;20298;-59
2023/05/15 12:24:38;;;;;;;7.27;4.33;;;;;;;;;;5013549;28;20231;-59
2023/05/15 12:27:05;;;;;;;5.40;4.50;;;;;;;;;;5019446;28;20242;-59
2023/05/15 12:29:32;;;;;;;7.30;5.30;;;;;;;;;;5010978;28;20598;-59
2023/05/15 12:32:00;;;;;;;5.50;4.33;;;;;;;;;;5028737;28;20595;-62
2023/05/15 12:34:28;;;;;;;6.07;4.60;;;;;;;;;;4991678;28;20243;-60
2023/05/15 12:36:58;;;;;;;6.60;4.90;;;;;;;;;;5008947;28;20200;-60
2023/05/15 12:39:25;;;;;;;5.03;4.37;;;;;;;;;;5008801;28;20184;-60
2023/05/15 12:41:55;;;;;;;5.77;4.50;;;;;;;;;;4992644;28;20222;-60
2023/05/15 12:44:22;;;;;;;6.13;4.70;;;;;;;;;;5027345;28;20179;-60
2023/05/15 12:46:49;;;;;;;7.67;4.80;;;;;;;;;;5010012;28;20254;-60
2023/05/15 12:49:19;;;;;;;9.80;4.87;;;;;;;;;;5010071;28;20629;-60
2023/05/15 12:51:46;;;;;;;6.93;4.67;;;;;;;;;;5027586;28;20196;-59
2023/05/15 12:54:19;;;;;;;6.90;5.07;;;;;;;;;;5026927;28;20187;-59
2023/05/15 12:56:47;;;;;;;11.73;6.37;;;;;;;;;;5026983;28;20194;-59
2023/05/15 12:59:14;;;;;;;9.53;6.33;;;;;;;;;;5016721;28;20987;-59
2023/05/15 13:01:43;;;;;;;8.30;5.40;;;;;;;;;;5019975;28;20594;-59
2023/05/15 13:04:10;;;;;;;7.37;4.57;;;;;;;;;;5027152;28;20222;-60
2023/05/15 13:06:37;;;;;;;9.93;5.73;;;;;;;;;;5010106;28;20195;-60
2023/05/15 13:09:12;;;;;;;12.73;8.20;;;;;;;;;;5008501;28;20200;-60
2023/05/15 13:11:44;;;;;;;10.83;6.80;;;;;;;;;;5011830;28;20207;-60
2023/05/15 13:14:15;;;;;;;9.50;5.77;;;;;;;;;;5026205;28;20184;-60
2023/05/15 13:16:43;;;;;;;9.57;5.60;;;;;;;;;;5026000;28;20199;-60
2023/05/15 13:19:10;;;;;;;9.37;6.13;;;;;;;;;;5025655;28;20211;-60
2023/05/15 13:21:37;;;;;;;8.40;5.50;;;;;;;;;;5023817;28;20821;-60
2023/05/15 13:24:08;;;;;;;6.13;5.50;;;;;;;;;;5028550;28;20618;-60
2023/05/15 13:26:35;;;;;;;6.83;5.50;;;;;;;;;;5028776;28;20294;-60
2023/05/15 13:29:02;;;;;;;6.27;5.40;;;;;;;;;;5028654;28;20210;-60
2023/05/15 13:31:29;;;;;;;8.30;6.53;;;;;;;;;;5029228;28;20246;-60
2023/05/15 13:33:56;;;;;;;6.07;5.03;;;;;;;;;;5027665;28;20211;-60
2023/05/15 13:36:24;;;;;;;8.70;5.37;;;;;;;;;;5028655;28;20375;-60
2023/05/15 13:38:51;;;;;;;7.07;6.00;;;;;;;;;;5028025;28;20221;-60
2023/05/15 13:41:18;;;;;;;10.20;6.07;;;;;;;;;;5028159;28;20622;-59
2023/05/15 13:43:46;;;;;;;7.60;5.60;;;;;;;;;;5028272;28;20206;-59
2023/05/15 13:46:15;;;;;;;7.83;6.13;;;;;;;;;;5028645;28;20659;-59
2023/05/15 13:48:42;;;;;;;6.50;5.20;;;;;;;;;;5026785;28;20223;-59
2023/05/15 13:51:09;;;;;;;8.27;5.40;;;;;;;;;;5027904;28;20431;-59
2023/05/15 13:53:36;;;;;;;5.80;5.17;;;;;;;;;;5028236;28;20183;-59
2023/05/15 13:56:02;;;;;;;6.83;4.80;;;;;;;;;;5028089;28;20184;-60
2023/05/15 13:58:29;;;;;;;7.70;5.13;;;;;;;;;;5028406;28;20278;-59
2023/05/15 14:00:56;;;;;;;5.33;4.53;;;;;;;;;;5028571;28;20241;-60
2023/05/15 14:03:23;;;;;;;5.67;4.13;;;;;;;;;;5028651;28;20191;-60
2023/05/15 14:05:51;;;;;;;5.10;4.60;;;;;;;;;;5014932;28;20204;-61
2023/05/15 14:08:18;;;;;;;8.70;4.50;;;;;;;;;;5028388;28;20207;-59
2023/05/15 14:10:45;;;;;;;6.13;4.37;;;;;;;;;;5028744;28;20290;-60
2023/05/15 14:13:11;;;;;;;6.27;4.80;;;;;;;;;;5028533;28;20217;-59
2023/05/15 14:15:38;;;;;;;7.10;5.33;;;;;;;;;;5031143;28;20609;-59
2023/05/15 14:18:05;;;;;;;8.17;5.33;;;;;;;;;;5032356;28;20638;-59
2023/05/15 14:20:31;;;;;;;6.47;5.50;;;;;;;;;;5033320;28;20188;-59
2023/05/15 14:22:58;;;;;;;12.40;7.37;;;;;;;;;;5027969;28;20191;-60
2023/05/15 14:25:25;;;;;;;9.37;6.70;;;;;;;;;;5032608;28;20222;-60
2023/05/15 14:27:52;;;;;;;18.47;15.53;;;;;;;;;;5022511;28;20720;-60
2023/05/15 14:30:20;;;;;;;10.80;7.33;;;;;;;;;;5031861;28;20577;-58
2023/05/15 14:32:47;;;;;;;5.97;5.23;;;;;;;;;;5031712;28;20249;-59
2023/05/15 14:35:14;;;;;;;9.03;5.80;;;;;;;;;;5031864;28;20200;-59
2023/05/15 14:37:42;;;;;;;6.53;5.77;;;;;;;;;;5030857;28;20234;-58
2023/05/15 14:40:09;;;;;;;6.77;6.07;;;;;;;;;;5031763;28;20571;-59
2023/05/15 14:42:38;;;;;;;6.87;5.73;;;;;;;;;;5013805;28;20280;-59
2023/05/15 14:45:06;;;;;;;6.57;5.83;;;;;;;;;;5031928;28;20192;-59
2023/05/15 14:47:32;;;;;;;9.23;6.30;;;;;;;;;;5031382;28;20546;-61
2023/05/15 14:49:59;;;;;;;9.30;6.37;;;;;;;;;;5031906;28;20229;-59
2023/05/15 14:52:26;;;;;;;6.77;6.00;;;;;;;;;;5031458;28;20191;-59
2023/05/15 14:54:53;;;;;;;7.83;6.47;;;;;;;;;;5024290;28;20270;-59
2023/05/15 14:57:35;;;;;;;10.87;6.93;;;;;;;;;;5030629;28;20288;-60
2023/05/15 15:00:03;;;;;;;12.50;8.27;;;;;;;;;;5031447;28;20217;-59
2023/05/15 15:02:30;;;;;;;7.80;6.83;;;;;;;;;;5031925;28;20208;-60
2023/05/15 15:05:00;;;;;;;11.67;7.17;;;;;;;;;;5022195;28;20195;-59
2023/05/15 15:07:27;;;;;;;9.80;7.10;;;;;;;;;;5031913;28;20571;-59
2023/05/15 15:09:55;;;;;;;7.70;6.70;;;;;;;;;;5031736;28;20219;-59
2023/05/15 15:12:21;;;;;;;9.30;7.03;;;;;;;;;;5027346;28;20650;-59
2023/05/15 15:14:48;;;;;;;10.37;7.60;;;;;;;;;;5031665;28;20194;-59
2023/05/15 15:17:15;;;;;;;9.43;6.70;;;;;;;;;;5030708;28;20280;-59